An Run Da 2 — BHNX — position and weather

sailwx.info

Track history (hours):
 
Tides and Currents Weather Stations Pressure Air Temp Water Temp Dewpoint Dewpoint Depression Visibility Wind Speed Wind Dir Waves Ship Positions

An Run Da 2

Last reported at 2015-Jul-05 13:28 UTC. Time now 2015-Jul-08 02:15 UTC.
Position N 34°44' E 121°52'.

Length 147 m; draft 5 m.

Type: Cargo ship. MMSI: 413360230.

Date/timePositionNaut miles runAvg speedWind from/ knotsBaromVisibWave heightAir tempDewpointWater temp
2015-Jul-05 13:28N 34°44' E 121°52'1011.0
2015-Jul-05 12:33N 34°37' E 122°01'1111.2
2015-Jul-05 11:33N 34°27' E 122°07'203 9.7
2015-Jul-04 14:33N 31°04' E 122°05'8 8.3
2015-Jul-04 13:33N 31°07' E 121°56'1312.5
2015-Jul-04 12:33N 31°16' E 121°46'1111.5
2015-Jul-04 11:33N 31°23' E 121°36'1 0.3
2015-Jul-04 09:33N 31°24' E 121°35'0 0.0
2015-Jul-04 08:31N 31°24' E 121°35'0 0.1
2015-Jul-04 07:33N 31°24' E 121°35'0 0.1
2015-Jul-04 06:33N 31°24' E 121°35'2 1.5
2015-Jul-04 05:33N 31°23' E 121°34'3 3.3
2015-Jul-04 04:33N 31°21' E 121°31'6 5.4
2015-Jul-04 03:32N 31°16' E 121°33'5 5.6
2015-Jul-04 02:33N 31°12' E 121°29'6 5.6
2015-Jul-04 01:33N 31°06' E 121°27'3 2.9
2015-Jul-04 00:33N 31°03' E 121°28'0 0.0
2015-Jul-03 23:31N 31°03' E 121°28'0 0.0
2015-Jul-03 22:25N 31°03' E 121°28'0 0.0
2015-Jul-03 21:24N 31°03' E 121°28'0 0.0
2015-Jul-03 20:31N 31°03' E 121°28'0 0.0
2015-Jul-03 19:25N 31°03' E 121°28'0 0.0
2015-Jul-03 18:28N 31°03' E 121°28'0 0.0
2015-Jul-03 17:19N 31°03' E 121°28'0 0.0
2015-Jul-03 16:32N 31°03' E 121°28'0 0.0
2015-Jul-03 15:33N 31°03' E 121°28'0 0.0
2015-Jul-03 14:06N 31°03' E 121°28'0 0.0
2015-Jul-03 12:33N 31°03' E 121°28'0 0.0
2015-Jul-03 11:33N 31°03' E 121°28'0 0.0
2015-Jul-03 10:33N 31°03' E 121°28'0 0.0
2015-Jul-03 09:33N 31°03' E 121°28'0 0.0
2015-Jul-03 08:33N 31°03' E 121°28'0 0.0
2015-Jul-03 07:30N 31°03' E 121°28'0 0.0
2015-Jul-03 06:33N 31°03' E 121°28'0 0.0
2015-Jul-03 05:21N 31°03' E 121°28'0 0.0
2015-Jul-03 04:33N 31°03' E 121°28'0 0.0
2015-Jul-03 03:18N 31°03' E 121°28'0 0.0
2015-Jul-03 02:18N 31°03' E 121°28'0 0.0
2015-Jul-03 01:27N 31°03' E 121°28'0 0.0
2015-Jul-03 00:20N 31°03' E 121°28'0 0.0
2015-Jul-02 23:23N 31°03' E 121°28'0 0.0
2015-Jul-02 22:29N 31°03' E 121°28'0 0.0
2015-Jul-02 21:31N 31°03' E 121°28'0 0.0
2015-Jul-02 20:32N 31°03' E 121°28'0 0.0
2015-Jul-02 19:32N 31°03' E 121°28'0 0.0
2015-Jul-02 18:32N 31°03' E 121°28'0 0.0
2015-Jul-02 17:26N 31°03' E 121°28'0 0.0
2015-Jul-02 16:32N 31°03' E 121°28'0 0.0
2015-Jul-02 15:32N 31°03' E 121°28'0 0.0
2015-Jul-02 14:14N 31°03' E 121°28'0 0.0
2015-Jul-02 13:32N 31°03' E 121°28'0 0.0
2015-Jul-02 12:32N 31°03' E 121°28'0 0.0
2015-Jul-02 11:29N 31°03' E 121°28'0 0.0
2015-Jul-02 10:32N 31°03' E 121°28'0 0.0
2015-Jul-02 09:32N 31°03' E 121°28'0 0.0
2015-Jul-02 08:33N 31°03' E 121°28'3 2.8
2015-Jul-02 07:33N 31°06' E 121°27'4 4.3
2015-Jul-02 06:33N 31°10' E 121°28'5 4.5
2015-Jul-02 05:33N 31°15' E 121°29'5 5.2
2015-Jul-02 04:33N 31°19' E 121°33'5 5.3
2015-Jul-02 03:33N 31°23' E 121°30'8 7.7
2015-Jul-02 02:33N 31°21' E 121°39'1010.3
2015-Jul-02 01:33N 31°17' E 121°50'10 9.7
2015-Jul-02 00:34N 31°15' E 122°01'9 8.4
2015-Jul-01 23:33N 31°11' E 122°10'9 9.0
2015-Jul-01 22:33N 31°06' E 122°19'9 9.2
2015-Jul-01 21:32N 31°07' E 122°30'9 8.8
2015-Jul-01 20:33N 31°15' E 122°31'3 3.4
2015-Jul-01 19:33N 31°18' E 122°30'0 0.1
2015-Jul-01 18:31N 31°18' E 122°30'0 0.1
2015-Jul-01 17:31N 31°18' E 122°30'0 0.1
2015-Jul-01 16:28N 31°18' E 122°30'0 0.1
2015-Jul-01 15:30N 31°18' E 122°30'0 0.0
2015-Jul-01 14:33N 31°18' E 122°30'0 0.1
2015-Jul-01 10:26N 31°18' E 122°30'75 6.3
2015-Jun-30 22:28N 32°33' E 122°31'1010.5
2015-Jun-30 21:32N 32°43' E 122°32'290 9.8
2015-Jun-29 16:03N 37°33' E 122°41'611.8
2015-Jun-29 15:33N 37°37' E 122°35'1311.6
2015-Jun-29 14:24N 37°44' E 122°22'179 9.9
2015-Jun-28 20:21N 39°50' E 119°39'5 6.5
2015-Jun-28 19:33N 39°56' E 119°39'0 0.0
2015-Jun-28 18:31N 39°56' E 119°39'0 0.0
2015-Jun-28 17:25N 39°56' E 119°39'0 0.0
2015-Jun-28 14:25N 39°56' E 119°39'0 0.0
2015-Jun-28 13:31N 39°56' E 119°39'0 0.0
2015-Jun-28 12:31N 39°56' E 119°39'0 0.0
2015-Jun-28 11:25N 39°56' E 119°39'0 0.0
2015-Jun-28 09:33N 39°56' E 119°39'0 0.0
2015-Jun-28 08:28N 39°56' E 119°39'0 0.0
2015-Jun-28 07:22N 39°56' E 119°39'0 0.0
2015-Jun-28 06:22N 39°56' E 119°39'0 0.0
2015-Jun-28 05:28N 39°56' E 119°39'0 0.0
2015-Jun-28 04:33N 39°56' E 119°39'5 4.5
2015-Jun-28 03:33N 39°51' E 119°39'4 1.1
2015-Jun-28 00:17N 39°48' E 119°36'0 0.0
2015-Jun-27 22:23N 39°48' E 119°36'0 0.0
2015-Jun-27 21:05N 39°48' E 119°36'0 0.0
2015-Jun-27 20:23N 39°48' E 119°36'0 0.1
2015-Jun-27 19:29N 39°48' E 119°36'0 0.0
2015-Jun-27 18:29N 39°48' E 119°36'0 0.0
2015-Jun-27 17:29N 39°48' E 119°36'0 0.0
2015-Jun-27 16:29N 39°48' E 119°36'0 0.0
2015-Jun-27 15:17N 39°48' E 119°36'0 0.0
2015-Jun-27 14:17N 39°48' E 119°36'0 0.1
2015-Jun-27 12:11N 39°48' E 119°36'0 0.0
2015-Jun-27 08:29N 39°48' E 119°36'0 0.0
2015-Jun-27 03:05N 39°48' E 119°36'0 0.0
2015-Jun-27 01:29N 39°48' E 119°36'0 0.0
2015-Jun-27 00:29N 39°48' E 119°36'0 0.0
2015-Jun-26 23:33N 39°48' E 119°36'3 3.4
2015-Jun-26 22:32N 39°45' E 119°39'4611.4
2015-Jun-26 18:28N 39°07' E 120°14'6510.9
2015-Jun-26 12:31N 38°26' E 121°18'2611.6
2015-Jun-26 10:15N 38°10' E 121°45'811.4
2015-Jun-26 09:31N 38°06' E 121°54'1111.5
2015-Jun-26 08:34N 37°59' E 122°05'1211.7
2015-Jun-26 07:32N 37°52' E 122°17'1111.4
2015-Jun-26 06:33N 37°45' E 122°29'1111.3
2015-Jun-26 05:34N 37°39' E 122°40'1111.2
2015-Jun-26 04:34N 37°30' E 122°49'  
Track history (hours):
 
Tides and Currents Weather Stations Pressure Air Temp Water Temp Dewpoint Dewpoint Depression Visibility Wind Speed Wind Dir Waves Ship Positions

An Run Da 2

Last reported at 2015-Jul-05 13:28 UTC. Time now 2015-Jul-08 02:15 UTC.
Position N 34°44' E 121°52'.

Length 147 m; draft 5 m.

Type: Cargo ship. MMSI: 413360230.

Date/timePositionNaut miles runAvg speedWind from/ knotsBaromVisibWave heightAir tempDewpointWater temp
2015-Jul-05 13:28N 34°44' E 121°52'1011.0
2015-Jul-05 12:33N 34°37' E 122°01'1111.2
2015-Jul-05 11:33N 34°27' E 122°07'203 9.7
2015-Jul-04 14:33N 31°04' E 122°05'8 8.3
2015-Jul-04 13:33N 31°07' E 121°56'1312.5
2015-Jul-04 12:33N 31°16' E 121°46'1111.5
2015-Jul-04 11:33N 31°23' E 121°36'1 0.3
2015-Jul-04 09:33N 31°24' E 121°35'0 0.0
2015-Jul-04 08:31N 31°24' E 121°35'0 0.1
2015-Jul-04 07:33N 31°24' E 121°35'0 0.1
2015-Jul-04 06:33N 31°24' E 121°35'2 1.5
2015-Jul-04 05:33N 31°23' E 121°34'3 3.3
2015-Jul-04 04:33N 31°21' E 121°31'6 5.4
2015-Jul-04 03:32N 31°16' E 121°33'5 5.6
2015-Jul-04 02:33N 31°12' E 121°29'6 5.6
2015-Jul-04 01:33N 31°06' E 121°27'3 2.9
2015-Jul-04 00:33N 31°03' E 121°28'0 0.0
2015-Jul-03 23:31N 31°03' E 121°28'0 0.0
2015-Jul-03 22:25N 31°03' E 121°28'0 0.0
2015-Jul-03 21:24N 31°03' E 121°28'0 0.0
2015-Jul-03 20:31N 31°03' E 121°28'0 0.0
2015-Jul-03 19:25N 31°03' E 121°28'0 0.0
2015-Jul-03 18:28N 31°03' E 121°28'0 0.0
2015-Jul-03 17:19N 31°03' E 121°28'0 0.0
2015-Jul-03 16:32N 31°03' E 121°28'0 0.0
2015-Jul-03 15:33N 31°03' E 121°28'0 0.0
2015-Jul-03 14:06N 31°03' E 121°28'0 0.0
2015-Jul-03 12:33N 31°03' E 121°28'0 0.0
2015-Jul-03 11:33N 31°03' E 121°28'0 0.0
2015-Jul-03 10:33N 31°03' E 121°28'0 0.0
2015-Jul-03 09:33N 31°03' E 121°28'0 0.0
2015-Jul-03 08:33N 31°03' E 121°28'0 0.0
2015-Jul-03 07:30N 31°03' E 121°28'0 0.0
2015-Jul-03 06:33N 31°03' E 121°28'0 0.0
2015-Jul-03 05:21N 31°03' E 121°28'0 0.0
2015-Jul-03 04:33N 31°03' E 121°28'0 0.0
2015-Jul-03 03:18N 31°03' E 121°28'0 0.0
2015-Jul-03 02:18N 31°03' E 121°28'0 0.0
2015-Jul-03 01:27N 31°03' E 121°28'0 0.0
2015-Jul-03 00:20N 31°03' E 121°28'0 0.0
2015-Jul-02 23:23N 31°03' E 121°28'0 0.0
2015-Jul-02 22:29N 31°03' E 121°28'0 0.0
2015-Jul-02 21:31N 31°03' E 121°28'0 0.0
2015-Jul-02 20:32N 31°03' E 121°28'0 0.0
2015-Jul-02 19:32N 31°03' E 121°28'0 0.0
2015-Jul-02 18:32N 31°03' E 121°28'0 0.0
2015-Jul-02 17:26N 31°03' E 121°28'0 0.0
2015-Jul-02 16:32N 31°03' E 121°28'0 0.0
2015-Jul-02 15:32N 31°03' E 121°28'0 0.0
2015-Jul-02 14:14N 31°03' E 121°28'0 0.0
2015-Jul-02 13:32N 31°03' E 121°28'0 0.0
2015-Jul-02 12:32N 31°03' E 121°28'0 0.0
2015-Jul-02 11:29N 31°03' E 121°28'0 0.0
2015-Jul-02 10:32N 31°03' E 121°28'0 0.0
2015-Jul-02 09:32N 31°03' E 121°28'0 0.0
2015-Jul-02 08:33N 31°03' E 121°28'3 2.8
2015-Jul-02 07:33N 31°06' E 121°27'4 4.3
2015-Jul-02 06:33N 31°10' E 121°28'5 4.5
2015-Jul-02 05:33N 31°15' E 121°29'5 5.2
2015-Jul-02 04:33N 31°19' E 121°33'5 5.3
2015-Jul-02 03:33N 31°23' E 121°30'8 7.7
2015-Jul-02 02:33N 31°21' E 121°39'1010.3
2015-Jul-02 01:33N 31°17' E 121°50'10 9.7
2015-Jul-02 00:34N 31°15' E 122°01'9 8.4
2015-Jul-01 23:33N 31°11' E 122°10'9 9.0
2015-Jul-01 22:33N 31°06' E 122°19'9 9.2
2015-Jul-01 21:32N 31°07' E 122°30'9 8.8
2015-Jul-01 20:33N 31°15' E 122°31'3 3.4
2015-Jul-01 19:33N 31°18' E 122°30'0 0.1
2015-Jul-01 18:31N 31°18' E 122°30'0 0.1
2015-Jul-01 17:31N 31°18' E 122°30'0 0.1
2015-Jul-01 16:28N 31°18' E 122°30'0 0.1
2015-Jul-01 15:30N 31°18' E 122°30'0 0.0
2015-Jul-01 14:33N 31°18' E 122°30'0 0.1
2015-Jul-01 10:26N 31°18' E 122°30'75 6.3
2015-Jun-30 22:28N 32°33' E 122°31'1010.5
2015-Jun-30 21:32N 32°43' E 122°32'290 9.8
2015-Jun-29 16:03N 37°33' E 122°41'611.8
2015-Jun-29 15:33N 37°37' E 122°35'1311.6
2015-Jun-29 14:24N 37°44' E 122°22'179 9.9
2015-Jun-28 20:21N 39°50' E 119°39'5 6.5
2015-Jun-28 19:33N 39°56' E 119°39'0 0.0
2015-Jun-28 18:31N 39°56' E 119°39'0 0.0
2015-Jun-28 17:25N 39°56' E 119°39'0 0.0
2015-Jun-28 14:25N 39°56' E 119°39'0 0.0
2015-Jun-28 13:31N 39°56' E 119°39'0 0.0
2015-Jun-28 12:31N 39°56' E 119°39'0 0.0
2015-Jun-28 11:25N 39°56' E 119°39'0 0.0
2015-Jun-28 09:33N 39°56' E 119°39'0 0.0
2015-Jun-28 08:28N 39°56' E 119°39'0 0.0
2015-Jun-28 07:22N 39°56' E 119°39'0 0.0
2015-Jun-28 06:22N 39°56' E 119°39'0 0.0
2015-Jun-28 05:28N 39°56' E 119°39'0 0.0
2015-Jun-28 04:33N 39°56' E 119°39'5 4.5
2015-Jun-28 03:33N 39°51' E 119°39'4 1.1
2015-Jun-28 00:17N 39°48' E 119°36'0 0.0
2015-Jun-27 22:23N 39°48' E 119°36'0 0.0
2015-Jun-27 21:05N 39°48' E 119°36'0 0.0
2015-Jun-27 20:23N 39°48' E 119°36'0 0.1
2015-Jun-27 19:29N 39°48' E 119°36'0 0.0
2015-Jun-27 18:29N 39°48' E 119°36'0 0.0
2015-Jun-27 17:29N 39°48' E 119°36'0 0.0
2015-Jun-27 16:29N 39°48' E 119°36'0 0.0
2015-Jun-27 15:17N 39°48' E 119°36'0 0.0
2015-Jun-27 14:17N 39°48' E 119°36'0 0.1
2015-Jun-27 12:11N 39°48' E 119°36'0 0.0
2015-Jun-27 08:29N 39°48' E 119°36'0 0.0
2015-Jun-27 03:05N 39°48' E 119°36'0 0.0
2015-Jun-27 01:29N 39°48' E 119°36'0 0.0
2015-Jun-27 00:29N 39°48' E 119°36'0 0.0
2015-Jun-26 23:33N 39°48' E 119°36'3 3.4
2015-Jun-26 22:32N 39°45' E 119°39'4611.4
2015-Jun-26 18:28N 39°07' E 120°14'6510.9
2015-Jun-26 12:31N 38°26' E 121°18'2611.6
2015-Jun-26 10:15N 38°10' E 121°45'811.4
2015-Jun-26 09:31N 38°06' E 121°54'1111.5
2015-Jun-26 08:34N 37°59' E 122°05'1211.7
2015-Jun-26 07:32N 37°52' E 122°17'1111.4
2015-Jun-26 06:33N 37°45' E 122°29'1111.3
2015-Jun-26 05:34N 37°39' E 122°40'1111.2
2015-Jun-26 04:34N 37°30' E 122°49'  

Dump ship's entire track history